Aviation Digital Data Service (ADDS)

Output produced by TAFs form (0512 UTC 25 June 2017)
found at http://aviationweather.gov/adds/tafs/
 
KCNY 242334Z 2500/2524 VRB05KT P6SM SKC 
     FM250200 06006KT P6SM SKC 
     FM251400 10004KT P6SM SKC 
     FM252000 30004KT P6SM SKC